sensor_id;sensor_type;location;lat;lon;timestamp;pressure;altitude;pressure_sealevel;temperature;humidity
19748;BME280;10032;51.386;12.516;2023-04-01T00:00:32;98394.19;;;10.92;100.00
19748;BME280;10032;51.386;12.516;2023-04-01T00:02:57;98387.75;;;10.88;100.00
19748;BME280;10032;51.386;12.516;2023-04-01T00:05:23;98393.75;;;10.85;100.00
19748;BME280;10032;51.386;12.516;2023-04-01T00:07:49;98389.72;;;10.82;100.00
19748;BME280;10032;51.386;12.516;2023-04-01T00:10:15;98390.75;;;10.86;100.00
19748;BME280;10032;51.386;12.516;2023-04-01T00:12:41;98383.41;;;10.87;100.00
19748;BME280;10032;51.386;12.516;2023-04-01T00:15:09;98384.81;;;10.84;100.00
19748;BME280;10032;51.386;12.516;2023-04-01T00:17:36;98384.31;;;10.82;100.00
19748;BME280;10032;51.386;12.516;2023-04-01T00:20:02;98381.59;;;10.82;100.00
19748;BME280;10032;51.386;12.516;2023-04-01T00:22:28;98386.53;;;10.80;100.00
19748;BME280;10032;51.386;12.516;2023-04-01T00:24:53;98380.28;;;10.80;100.00
19748;BME280;10032;51.386;12.516;2023-04-01T00:27:19;98388.41;;;10.80;100.00
19748;BME280;10032;51.386;12.516;2023-04-01T00:29:46;98387.91;;;10.78;100.00
19748;BME280;10032;51.386;12.516;2023-04-01T00:32:12;98390.34;;;10.79;100.00
19748;BME280;10032;51.386;12.516;2023-04-01T00:34:37;98390.34;;;10.79;100.00
19748;BME280;10032;51.386;12.516;2023-04-01T00:37:03;98381.41;;;10.79;100.00
19748;BME280;10032;51.386;12.516;2023-04-01T00:39:30;98382.22;;;10.79;100.00
19748;BME280;10032;51.386;12.516;2023-04-01T00:41:56;98383.88;;;10.75;100.00
19748;BME280;10032;51.386;12.516;2023-04-01T00:44:27;98383.28;;;10.78;100.00
19748;BME280;10032;51.386;12.516;2023-04-01T00:46:53;98379.50;;;10.79;100.00
19748;BME280;10032;51.386;12.516;2023-04-01T00:49:22;98383.28;;;10.78;100.00
19748;BME280;10032;51.386;12.516;2023-04-01T00:51:52;98377.88;;;10.78;100.00
19748;BME280;10032;51.386;12.516;2023-04-01T00:54:19;98385.19;;;10.78;100.00
19748;BME280;10032;51.386;12.516;2023-04-01T00:56:52;98380.66;;;10.73;100.00
19748;BME280;10032;51.386;12.516;2023-04-01T00:59:30;98377.94;;;10.73;100.00
19748;BME280;10032;51.386;12.516;2023-04-01T01:01:57;98383.69;;;10.72;100.00
19748;BME280;10032;51.386;12.516;2023-04-01T01:04:31;98376.63;;;10.71;100.00
19748;BME280;10032;51.386;12.516;2023-04-01T01:12:23;98388.06;;;10.68;100.00
19748;BME280;10032;51.386;12.516;2023-04-01T01:23:56;98382.44;;;10.64;100.00
19748;BME280;10032;51.386;12.516;2023-04-01T01:32:07;98376.63;;;10.71;100.00
19748;BME280;10032;51.386;12.516;2023-04-01T01:34:55;98375.84;;;10.70;100.00
19748;BME280;10032;51.386;12.516;2023-04-01T01:37:25;98370.13;;;10.72;100.00
19748;BME280;10032;51.386;12.516;2023-04-01T01:39:58;98376.63;;;10.71;100.00
19748;BME280;10032;51.386;12.516;2023-04-01T01:42:27;98374.22;;;10.69;100.00
19748;BME280;10032;51.386;12.516;2023-04-01T01:44:56;98372.03;;;10.71;100.00
19748;BME280;10032;51.386;12.516;2023-04-01T01:47:23;98368.00;;;10.69;100.00
19748;BME280;10032;51.386;12.516;2023-04-01T01:49:50;98367.19;;;10.68;100.00
19748;BME280;10032;51.386;12.516;2023-04-01T01:52:17;98372.59;;;10.68;100.00
19748;BME280;10032;51.386;12.516;2023-04-01T01:54:54;98371.81;;;10.68;100.00
19748;BME280;10032;51.386;12.516;2023-04-01T01:57:24;98376.41;;;10.67;100.00
19748;BME280;10032;51.386;12.516;2023-04-01T01:59:52;98373.41;;;10.69;100.00
19748;BME280;10032;51.386;12.516;2023-04-01T02:02:22;98374.22;;;10.69;100.00
19748;BME280;10032;51.386;12.516;2023-04-01T02:04:49;98381.81;;;10.67;100.00
19748;BME280;10032;51.386;12.516;2023-04-01T02:07:22;98376.94;;;10.69;100.00
19748;BME280;10032;51.386;12.516;2023-04-01T02:09:49;98381.75;;;10.72;100.00
19748;BME280;10032;51.386;12.516;2023-04-01T02:12:16;98382.28;;;10.74;100.00
19748;BME280;10032;51.386;12.516;2023-04-01T02:17:18;98379.03;;;10.72;100.00
19748;BME280;10032;51.386;12.516;2023-04-01T02:22:23;98375.22;;;10.73;100.00
19748;BME280;10032;51.386;12.516;2023-04-01T02:24:52;98382.56;;;10.73;100.00
19748;BME280;10032;51.386;12.516;2023-04-01T02:27:19;98382.34;;;10.69;100.00
19748;BME280;10032;51.386;12.516;2023-04-01T02:29:45;98370.91;;;10.72;100.00
19748;BME280;10032;51.386;12.516;2023-04-01T02:32:12;98376.34;;;10.72;100.00
19748;BME280;10032;51.386;12.516;2023-04-01T02:34:38;98376.88;;;10.74;100.00
19748;BME280;10032;51.386;12.516;2023-04-01T02:37:04;98382.84;;;10.71;100.00
19748;BME280;10032;51.386;12.516;2023-04-01T02:39:29;98381.25;;;10.70;100.00
19748;BME280;10032;51.386;12.516;2023-04-01T02:41:55;98384.47;;;10.72;100.00
19748;BME280;10032;51.386;12.516;2023-04-01T02:44:20;98380.66;;;10.73;100.00
19748;BME280;10032;51.386;12.516;2023-04-01T02:46:46;98384.47;;;10.72;100.00
19748;BME280;10032;51.386;12.516;2023-04-01T02:49:11;98382.84;;;10.71;100.00
19748;BME280;10032;51.386;12.516;2023-04-01T02:51:37;98383.06;;;10.75;100.00
19748;BME280;10032;51.386;12.516;2023-04-01T02:54:02;98384.19;;;10.74;100.00
19748;BME280;10032;51.386;12.516;2023-04-01T02:56:28;98392.50;;;10.77;100.00
19748;BME280;10032;51.386;12.516;2023-04-01T02:58:54;98388.19;;;10.76;100.00
19748;BME280;10032;51.386;12.516;2023-04-01T03:01:20;98384.69;;;10.76;100.00
19748;BME280;10032;51.386;12.516;2023-04-01T03:03:45;98385.50;;;10.76;100.00
19748;BME280;10032;51.386;12.516;2023-04-01T03:06:14;98384.69;;;10.76;100.00
19748;BME280;10032;51.386;12.516;2023-04-01T03:08:40;98395.50;;;10.76;100.00
19748;BME280;10032;51.386;12.516;2023-04-01T03:11:05;98385.56;;;10.71;100.00
19748;BME280;10032;51.386;12.516;2023-04-01T03:13:31;98384.47;;;10.72;100.00
19748;BME280;10032;51.386;12.516;2023-04-01T03:15:57;98389.38;;;10.70;100.00
19748;BME280;10032;51.386;12.516;2023-04-01T03:18:23;98385.28;;;10.73;100.00
19748;BME280;10032;51.386;12.516;2023-04-01T03:20:48;98386.06;;;10.73;100.00
19748;BME280;10032;51.386;12.516;2023-04-01T03:23:14;98392.31;;;10.74;100.00
19748;BME280;10032;51.386;12.516;2023-04-01T03:25:39;98387.69;;;10.74;100.00
19748;BME280;10032;51.386;12.516;2023-04-01T03:28:05;98391.47;;;10.73;100.00
19748;BME280;10032;51.386;12.516;2023-04-01T03:30:30;98390.41;;;10.74;100.00
19748;BME280;10032;51.386;12.516;2023-04-01T03:32:57;98393.91;;;10.75;100.00
19748;BME280;10032;51.386;12.516;2023-04-01T03:35:23;98393.13;;;10.74;100.00
19748;BME280;10032;51.386;12.516;2023-04-01T03:37:50;98395.50;;;10.76;100.00
19748;BME280;10032;51.386;12.516;2023-04-01T03:40:16;98401.53;;;10.73;100.00
19748;BME280;10032;51.386;12.516;2023-04-01T03:42:41;98393.69;;;10.71;100.00
19748;BME280;10032;51.386;12.516;2023-04-01T03:45:07;98407.53;;;10.70;100.00
19748;BME280;10032;51.386;12.516;2023-04-01T03:47:32;98399.59;;;10.73;100.00
19748;BME280;10032;51.386;12.516;2023-04-01T03:49:58;98400.72;;;10.72;100.00
19748;BME280;10032;51.386;12.516;2023-04-01T03:52:23;98405.56;;;10.75;100.00
19748;BME280;10032;51.386;12.516;2023-04-01T03:54:49;98404.53;;;10.71;100.00
19748;BME280;10032;51.386;12.516;2023-04-01T03:57:14;98407.53;;;10.70;100.00
19748;BME280;10032;51.386;12.516;2023-04-01T03:59:40;98403.50;;;10.67;100.00
19748;BME280;10032;51.386;12.516;2023-04-01T04:02:05;98410.84;;;10.67;100.00
19748;BME280;10032;51.386;12.516;2023-04-01T04:04:30;98410.50;;;10.68;100.00
19748;BME280;10032;51.386;12.516;2023-04-01T04:06:57;98407.81;;;10.68;100.00
19748;BME280;10032;51.386;12.516;2023-04-01T04:09:23;98409.72;;;10.68;100.00
19748;BME280;10032;51.386;12.516;2023-04-01T04:11:49;98408.41;;;10.65;100.00
19748;BME280;10032;51.386;12.516;2023-04-01T04:14:15;98418.22;;;10.61;100.00
19748;BME280;10032;51.386;12.516;2023-04-01T04:16:40;98415.50;;;10.61;100.00
19748;BME280;10032;51.386;12.516;2023-04-01T04:19:06;98420.69;;;10.58;100.00
19748;BME280;10032;51.386;12.516;2023-04-01T04:21:31;98422.09;;;10.55;100.00
19748;BME280;10032;51.386;12.516;2023-04-01T04:23:58;98431.31;;;10.54;100.00
19748;BME280;10032;51.386;12.516;2023-04-01T04:26:24;98422.09;;;10.55;100.00
19748;BME280;10032;51.386;12.516;2023-04-01T04:28:50;98422.09;;;10.55;100.00
19748;BME280;10032;51.386;12.516;2023-04-01T04:31:20;98428.06;;;10.52;100.00
19748;BME280;10032;51.386;12.516;2023-04-01T04:33:46;98428.06;;;10.52;100.00
19748;BME280;10032;51.386;12.516;2023-04-01T04:36:13;98439.50;;;10.49;100.00
19748;BME280;10032;51.386;12.516;2023-04-01T04:38:38;98444.38;;;10.47;100.00
19748;BME280;10032;51.386;12.516;2023-04-01T04:41:11;98444.09;;;10.49;100.00
19748;BME280;10032;51.386;12.516;2023-04-01T04:43:38;98445.19;;;10.48;100.00
19748;BME280;10032;51.386;12.516;2023-04-01T04:46:08;98438.19;;;10.47;100.00
19748;BME280;10032;51.386;12.516;2023-04-01T04:48:33;98441.16;;;10.45;100.00
19748;BME280;10032;51.386;12.516;2023-04-01T04:50:59;98434.88;;;10.50;100.00
19748;BME280;10032;51.386;12.516;2023-04-01T04:53:24;98441.66;;;10.47;100.00
19748;BME280;10032;51.386;12.516;2023-04-01T04:55:51;98438.97;;;10.47;100.00
19748;BME280;10032;51.386;12.516;2023-04-01T04:58:17;98446.25;;;10.52;100.00
19748;BME280;10032;51.386;12.516;2023-04-01T05:00:43;98444.84;;;10.54;100.00
19748;BME280;10032;51.386;12.516;2023-04-01T05:03:09;98445.41;;;10.51;100.00
19748;BME280;10032;51.386;12.516;2023-04-01T05:05:35;98448.13;;;10.51;100.00
19748;BME280;10032;51.386;12.516;2023-04-01T05:08:00;98450.31;;;10.49;100.00
19748;BME280;10032;51.386;12.516;2023-04-01T05:10:26;98445.69;;;10.50;100.00
19748;BME280;10032;51.386;12.516;2023-04-01T05:12:51;98449.72;;;10.52;100.00
19748;BME280;10032;51.386;12.516;2023-04-01T05:15:17;98452.97;;;10.54;100.00
19748;BME280;10032;51.386;12.516;2023-04-01T05:17:42;98463.81;;;10.54;100.00
19748;BME280;10032;51.386;12.516;2023-04-01T05:20:08;98457.84;;;10.52;100.00
19748;BME280;10032;51.386;12.516;2023-04-01T05:22:33;98461.59;;;10.56;100.00
19748;BME280;10032;51.386;12.516;2023-04-01T05:24:59;98463.53;;;10.56;100.00
19748;BME280;10032;51.386;12.516;2023-04-01T05:27:25;98467.00;;;10.56;100.00
19748;BME280;10032;51.386;12.516;2023-04-01T05:29:50;98464.84;;;10.58;100.00
19748;BME280;10032;51.386;12.516;2023-04-01T05:32:15;98464.84;;;10.58;100.00
19748;BME280;10032;51.386;12.516;2023-04-01T05:34:41;98463.47;;;10.61;100.00
19748;BME280;10032;51.386;12.516;2023-04-01T05:37:07;98458.81;;;10.61;100.00
19748;BME280;10032;51.386;12.516;2023-04-01T05:39:38;98466.38;;;10.64;100.00
19748;BME280;10032;51.386;12.516;2023-04-01T05:42:07;98461.69;;;10.70;100.00
19748;BME280;10032;51.386;12.516;2023-04-01T05:44:33;98466.00;;;10.71;100.00
19748;BME280;10032;51.386;12.516;2023-04-01T05:46:58;98467.31;;;10.73;100.00
19748;BME280;10032;51.386;12.516;2023-04-01T05:49:24;98470.78;;;10.79;100.00
19748;BME280;10032;51.386;12.516;2023-04-01T05:51:50;98468.78;;;10.84;100.00
19748;BME280;10032;51.386;12.516;2023-04-01T05:54:16;98461.69;;;10.88;100.00
19748;BME280;10032;51.386;12.516;2023-04-01T05:56:42;98469.75;;;10.93;100.00
19748;BME280;10032;51.386;12.516;2023-04-01T05:59:10;98465.16;;;10.94;100.00
19748;BME280;10032;51.386;12.516;2023-04-01T06:01:35;98474.06;;;10.94;100.00
19748;BME280;10032;51.386;12.516;2023-04-01T06:04:01;98471.91;;;10.96;100.00
19748;BME280;10032;51.386;12.516;2023-04-01T06:06:28;98470.28;;;10.95;100.00
19748;BME280;10032;51.386;12.516;2023-04-01T06:08:57;98478.63;;;10.99;100.00
19748;BME280;10032;51.386;12.516;2023-04-01T06:11:26;98480.94;;;11.05;100.00
19748;BME280;10032;51.386;12.516;2023-04-01T06:19:30;98481.19;;;11.09;100.00
19748;BME280;10032;51.386;12.516;2023-04-01T06:24:47;98486.31;;;11.10;100.00
19748;BME280;10032;51.386;12.516;2023-04-01T06:38:19;98490.31;;;11.31;100.00
19748;BME280;10032;51.386;12.516;2023-04-01T06:43:55;98493.78;;;11.37;100.00
19748;BME280;10032;51.386;12.516;2023-04-01T06:58:18;98498.00;;;11.61;100.00
19748;BME280;10032;51.386;12.516;2023-04-01T07:00:46;98493.81;;;11.69;100.00
19748;BME280;10032;51.386;12.516;2023-04-01T07:03:30;98490.72;;;11.75;100.00
19748;BME280;10032;51.386;12.516;2023-04-01T07:06:05;98495.34;;;11.75;100.00
19748;BME280;10032;51.386;12.516;2023-04-01T07:08:34;98493.34;;;11.80;100.00
19748;BME280;10032;51.386;12.516;2023-04-01T07:11:06;98498.06;;;11.88;100.00
19748;BME280;10032;51.386;12.516;2023-04-01T07:14:00;98496.38;;;11.92;100.00
19748;BME280;10032;51.386;12.516;2023-04-01T07:16:30;98501.44;;;11.99;100.00
19748;BME280;10032;51.386;12.516;2023-04-01T07:19:18;98502.75;;;12.01;100.00
19748;BME280;10032;51.386;12.516;2023-04-01T07:21:52;98499.63;;;12.08;100.00
19748;BME280;10032;51.386;12.516;2023-04-01T07:24:33;98505.47;;;12.15;100.00
19748;BME280;10032;51.386;12.516;2023-04-01T07:26:59;98507.78;;;12.21;100.00
19748;BME280;10032;51.386;12.516;2023-04-01T07:29:25;98512.22;;;12.31;100.00
19748;BME280;10032;51.386;12.516;2023-04-01T07:32:31;98512.91;;;12.36;100.00
19748;BME280;10032;51.386;12.516;2023-04-01T07:35:23;98512.25;;;12.44;100.00
19748;BME280;10032;51.386;12.516;2023-04-01T07:40:43;98518.56;;;12.53;100.00
19748;BME280;10032;51.386;12.516;2023-04-01T07:43:18;98517.28;;;12.64;100.00
19748;BME280;10032;51.386;12.516;2023-04-01T07:51:21;98531.34;;;12.66;100.00
19748;BME280;10032;51.386;12.516;2023-04-01T07:54:06;98529.13;;;12.68;100.00
19748;BME280;10032;51.386;12.516;2023-04-01T08:02:12;98537.06;;;12.78;100.00
19748;BME280;10032;51.386;12.516;2023-04-01T08:12:57;98544.34;;;12.83;100.00
19748;BME280;10032;51.386;12.516;2023-04-01T08:15:27;98548.38;;;12.85;100.00
19748;BME280;10032;51.386;12.516;2023-04-01T08:20:34;98555.81;;;12.80;100.00
19748;BME280;10032;51.386;12.516;2023-04-01T08:23:11;98557.09;;;12.82;100.00
19748;BME280;10032;51.386;12.516;2023-04-01T08:26:23;98556.00;;;12.83;100.00
19748;BME280;10032;51.386;12.516;2023-04-01T08:28:29;98559.09;;;12.90;100.00
19748;BME280;10032;51.386;12.516;2023-04-01T08:33:30;98558.13;;;13.00;100.00
19748;BME280;10032;51.386;12.516;2023-04-01T08:36:12;98561.44;;;12.97;100.00
19748;BME280;10032;51.386;12.516;2023-04-01T08:38:44;98563.38;;;12.96;100.00
19748;BME280;10032;51.386;12.516;2023-04-01T08:47:05;98561.03;;;13.03;100.00
19748;BME280;10032;51.386;12.516;2023-04-01T08:55:47;98567.38;;;13.12;100.00
19748;BME280;10032;51.386;12.516;2023-04-01T09:04:58;98569.41;;;13.42;100.00
19748;BME280;10032;51.386;12.516;2023-04-01T09:10:18;98565.59;;;13.43;100.00
19748;BME280;10032;51.386;12.516;2023-04-01T09:13:27;98563.75;;;13.52;100.00
19748;BME280;10032;51.386;12.516;2023-04-01T09:16:09;98571.19;;;13.60;100.00
19748;BME280;10032;51.386;12.516;2023-04-01T09:21:52;98572.31;;;13.81;100.00
19748;BME280;10032;51.386;12.516;2023-04-01T09:24:40;98569.13;;;14.01;100.00
19748;BME280;10032;51.386;12.516;2023-04-01T09:27:26;98566.31;;;14.15;100.00
19748;BME280;10032;51.386;12.516;2023-04-01T09:38:21;98578.25;;;14.05;100.00
19748;BME280;10032;51.386;12.516;2023-04-01T09:46:16;98574.38;;;14.20;100.00
19748;BME280;10032;51.386;12.516;2023-04-01T09:49:13;98578.25;;;14.27;100.00
19748;BME280;10032;51.386;12.516;2023-04-01T09:58:07;98573.50;;;14.33;100.00
19748;BME280;10032;51.386;12.516;2023-04-01T10:25:24;98580.03;;;14.62;100.00
19748;BME280;10032;51.386;12.516;2023-04-01T10:36:33;98576.59;;;14.48;100.00
19748;BME280;10032;51.386;12.516;2023-04-01T10:39:28;98586.06;;;14.51;100.00
19748;BME280;10032;51.386;12.516;2023-04-01T11:10:35;98580.44;;;14.47;100.00
19748;BME280;10032;51.386;12.516;2023-04-01T11:23:14;98586.16;;;14.37;100.00
19748;BME280;10032;51.386;12.516;2023-04-01T11:26:07;98596.53;;;14.27;100.00
19748;BME280;10032;51.386;12.516;2023-04-01T11:31:47;98602.03;;;14.13;100.00
19748;BME280;10032;51.386;12.516;2023-04-01T11:34:55;98595.47;;;14.14;100.00
19748;BME280;10032;51.386;12.516;2023-04-01T11:48:03;98587.19;;;13.97;100.00
19748;BME280;10032;51.386;12.516;2023-04-01T11:56:13;98609.25;;;13.96;100.00
19748;BME280;10032;51.386;12.516;2023-04-01T12:07:25;98613.41;;;13.93;100.00
19748;BME280;10032;51.386;12.516;2023-04-01T12:21:05;98630.63;;;13.67;100.00
19748;BME280;10032;51.386;12.516;2023-04-01T12:24:45;98630.84;;;13.70;100.00
19748;BME280;10032;51.386;12.516;2023-04-01T12:26:55;98634.53;;;13.74;100.00
19748;BME280;10032;51.386;12.516;2023-04-01T12:29:39;98639.50;;;13.72;100.00
19748;BME280;10032;51.386;12.516;2023-04-01T12:35:13;98645.81;;;13.81;100.00
19748;BME280;10032;51.386;12.516;2023-04-01T12:51:36;98649.25;;;14.09;100.00
19748;BME280;10032;51.386;12.516;2023-04-01T12:54:25;98640.59;;;14.07;100.00
19748;BME280;10032;51.386;12.516;2023-04-01T13:05:23;98654.44;;;13.97;100.00
19748;BME280;10032;51.386;12.516;2023-04-01T13:19:09;98657.13;;;14.32;100.00
19748;BME280;10032;51.386;12.516;2023-04-01T13:21:46;98659.72;;;14.37;100.00
19748;BME280;10032;51.386;12.516;2023-04-01T13:24:45;98660.44;;;14.43;100.00
19748;BME280;10032;51.386;12.516;2023-04-01T13:32:47;98666.88;;;14.47;100.00
19748;BME280;10032;51.386;12.516;2023-04-01T13:38:12;98666.53;;;14.48;100.00
19748;BME280;10032;51.386;12.516;2023-04-01T13:43:24;98667.84;;;14.51;100.00
19748;BME280;10032;51.386;12.516;2023-04-01T13:46:18;98672.00;;;14.48;100.00
19748;BME280;10032;51.386;12.516;2023-04-01T14:00:45;98678.81;;;14.37;100.00
19748;BME280;10032;51.386;12.516;2023-04-01T14:06:23;98683.00;;;14.43;100.00
19748;BME280;10032;51.386;12.516;2023-04-01T14:11:56;98681.81;;;14.49;100.00
19748;BME280;10032;51.386;12.516;2023-04-01T14:25:48;98691.00;;;14.40;100.00
19748;BME280;10032;51.386;12.516;2023-04-01T14:31:14;98697.16;;;14.23;100.00
19748;BME280;10032;51.386;12.516;2023-04-01T14:33:49;98700.19;;;14.22;100.00
19748;BME280;10032;51.386;12.516;2023-04-01T14:48:00;98706.75;;;14.21;100.00
19748;BME280;10032;51.386;12.516;2023-04-01T14:50:45;98715.09;;;14.24;100.00
19748;BME280;10032;51.386;12.516;2023-04-01T14:55:50;98708.53;;;14.25;100.00
19748;BME280;10032;51.386;12.516;2023-04-01T14:58:18;98710.13;;;14.26;100.00
19748;BME280;10032;51.386;12.516;2023-04-01T15:11:43;98723.88;;;14.21;100.00
19748;BME280;10032;51.386;12.516;2023-04-01T15:16:53;98727.50;;;14.17;100.00
19748;BME280;10032;51.386;12.516;2023-04-01T15:27:29;98739.16;;;13.95;100.00
19748;BME280;10032;51.386;12.516;2023-04-01T15:38:39;98750.41;;;13.80;100.00
19748;BME280;10032;51.386;12.516;2023-04-01T15:41:39;98745.06;;;13.75;100.00
19748;BME280;10032;51.386;12.516;2023-04-01T15:47:16;98746.75;;;13.71;100.00
19748;BME280;10032;51.386;12.516;2023-04-01T15:55:54;98755.41;;;13.73;100.00
19748;BME280;10032;51.386;12.516;2023-04-01T16:03:55;98761.59;;;13.65;100.00
19748;BME280;10032;51.386;12.516;2023-04-01T16:09:17;98761.16;;;13.58;100.00
19748;BME280;10032;51.386;12.516;2023-04-01T16:15:06;98775.31;;;13.60;100.00
19748;BME280;10032;51.386;12.516;2023-04-01T16:25:31;98774.00;;;13.44;100.00
19748;BME280;10032;51.386;12.516;2023-04-01T16:28:17;98778.00;;;13.33;100.00
19748;BME280;10032;51.386;12.516;2023-04-01T16:30:56;98786.66;;;13.35;100.00
19748;BME280;10032;51.386;12.516;2023-04-01T16:34:08;98803.00;;;13.35;100.00
19748;BME280;10032;51.386;12.516;2023-04-01T16:41:56;98805.81;;;13.30;100.00
19748;BME280;10032;51.386;12.516;2023-04-01T16:44:25;98810.53;;;13.25;100.00
19748;BME280;10032;51.386;12.516;2023-04-01T16:46:52;98822.81;;;13.22;100.00
19748;BME280;10032;51.386;12.516;2023-04-01T16:49:50;98815.75;;;13.21;100.00
19748;BME280;10032;51.386;12.516;2023-04-01T16:52:33;98815.25;;;13.19;100.00
19748;BME280;10032;51.386;12.516;2023-04-01T16:55:04;98826.44;;;13.18;100.00
19748;BME280;10032;51.386;12.516;2023-04-01T16:57:48;98830.56;;;13.15;100.00
19748;BME280;10032;51.386;12.516;2023-04-01T17:00:31;98835.38;;;13.05;100.00
19748;BME280;10032;51.386;12.516;2023-04-01T17:05:48;98840.53;;;12.88;100.00
19748;BME280;10032;51.386;12.516;2023-04-01T17:14:28;98849.34;;;12.61;100.00
19748;BME280;10032;51.386;12.516;2023-04-01T17:17:15;98846.34;;;12.63;100.00
19748;BME280;10032;51.386;12.516;2023-04-01T17:19:49;98858.59;;;12.60;100.00
19748;BME280;10032;51.386;12.516;2023-04-01T17:25:08;98853.97;;;12.42;100.00
19748;BME280;10032;51.386;12.516;2023-04-01T17:30:23;98867.84;;;12.41;100.00
19748;BME280;10032;51.386;12.516;2023-04-01T17:41:28;98878.47;;;12.37;100.00
19748;BME280;10032;51.386;12.516;2023-04-01T17:49:45;98896.31;;;12.25;100.00
19748;BME280;10032;51.386;12.516;2023-04-01T17:55:27;98907.19;;;12.25;100.00
19748;BME280;10032;51.386;12.516;2023-04-01T18:06:19;98922.78;;;12.14;100.00
19748;BME280;10032;51.386;12.516;2023-04-01T18:09:14;98924.97;;;12.12;100.00
19748;BME280;10032;51.386;12.516;2023-04-01T18:22:58;98943.00;;;12.03;100.00
19748;BME280;10032;51.386;12.516;2023-04-01T18:28:22;98945.19;;;12.01;100.00
19748;BME280;10032;51.386;12.516;2023-04-01T18:31:05;98956.63;;;11.98;100.00
19748;BME280;10032;51.386;12.516;2023-04-01T18:36:38;98965.09;;;11.92;100.00
19748;BME280;10032;51.386;12.516;2023-04-01T18:39:18;98968.69;;;11.87;100.00
19748;BME280;10032;51.386;12.516;2023-04-01T18:44:50;98984.53;;;11.75;100.00
19748;BME280;10032;51.386;12.516;2023-04-01T18:50:13;98994.91;;;11.68;100.00
19748;BME280;10032;51.386;12.516;2023-04-01T18:52:44;98995.03;;;11.53;100.00
19748;BME280;10032;51.386;12.516;2023-04-01T18:57:53;99013.41;;;11.23;100.00
19748;BME280;10032;51.386;12.516;2023-04-01T19:00:27;99008.31;;;11.16;100.00
19748;BME280;10032;51.386;12.516;2023-04-01T19:03:23;99021.97;;;11.01;100.00
19748;BME280;10032;51.386;12.516;2023-04-01T19:05:53;99014.38;;;10.98;100.00
19748;BME280;10032;51.386;12.516;2023-04-01T19:16:49;99035.59;;;10.81;100.00
19748;BME280;10032;51.386;12.516;2023-04-01T19:21:59;99047.81;;;10.74;100.00
19748;BME280;10032;51.386;12.516;2023-04-01T19:27:53;99056.84;;;10.59;100.00
19748;BME280;10032;51.386;12.516;2023-04-01T19:30:42;99045.47;;;10.52;100.00
19748;BME280;10032;51.386;12.516;2023-04-01T19:33:39;99056.84;;;10.49;100.00
19748;BME280;10032;51.386;12.516;2023-04-01T19:36:25;99062.31;;;10.39;100.00
19748;BME280;10032;51.386;12.516;2023-04-01T19:55:19;99091.84;;;10.01;100.00
19748;BME280;10032;51.386;12.516;2023-04-01T19:57:47;99091.31;;;9.94;100.00
19748;BME280;10032;51.386;12.516;2023-04-01T20:00:36;99087.78;;;9.88;100.00
19748;BME280;10032;51.386;12.516;2023-04-01T20:08:45;99104.81;;;9.79;100.00
19748;BME280;10032;51.386;12.516;2023-04-01T20:16:20;99130.50;;;9.61;100.00
19748;BME280;10032;51.386;12.516;2023-04-01T20:18:58;99142.66;;;9.59;100.00
19748;BME280;10032;51.386;12.516;2023-04-01T20:21:46;99136.94;;;9.45;100.00
19748;BME280;10032;51.386;12.516;2023-04-01T20:24:21;99142.59;;;9.39;100.00
19748;BME280;10032;51.386;12.516;2023-04-01T20:26:53;99143.94;;;9.36;100.00
19748;BME280;10032;51.386;12.516;2023-04-01T20:37:40;99167.75;;;9.34;100.00
19748;BME280;10032;51.386;12.516;2023-04-01T20:40:37;99172.31;;;9.24;100.00
19748;BME280;10032;51.386;12.516;2023-04-01T20:45:51;99173.63;;;9.16;100.00
19748;BME280;10032;51.386;12.516;2023-04-01T20:48:48;99186.84;;;9.13;100.00
19748;BME280;10032;51.386;12.516;2023-04-01T20:51:30;99180.06;;;9.05;100.00
19748;BME280;10032;51.386;12.516;2023-04-01T20:56:51;99188.63;;;8.92;100.00
19748;BME280;10032;51.386;12.516;2023-04-01T21:05:16;99208.09;;;8.89;100.00
19748;BME280;10032;51.386;12.516;2023-04-01T21:07:49;99209.94;;;8.84;100.00
19748;BME280;10032;51.386;12.516;2023-04-01T21:15:37;99222.38;;;8.48;100.00
19748;BME280;10032;51.386;12.516;2023-04-01T21:35:23;99262.78;;;8.38;100.00
19748;BME280;10032;51.386;12.516;2023-04-01T22:13:48;99315.19;;;7.51;100.00
19748;BME280;10032;51.386;12.516;2023-04-01T22:16:33;99330.19;;;7.42;100.00
19748;BME280;10032;51.386;12.516;2023-04-01T22:19:29;99327.22;;;7.44;100.00
19748;BME280;10032;51.386;12.516;2023-04-01T22:22:08;99334.50;;;7.43;100.00
19748;BME280;10032;51.386;12.516;2023-04-01T22:35:49;99348.47;;;7.02;100.00
19748;BME280;10032;51.386;12.516;2023-04-01T22:38:34;99351.97;;;7.03;100.00
19748;BME280;10032;51.386;12.516;2023-04-01T22:44:01;99356.63;;;7.07;100.00
19748;BME280;10032;51.386;12.516;2023-04-01T22:49:25;99361.44;;;7.05;100.00
19748;BME280;10032;51.386;12.516;2023-04-01T22:51:57;99375.16;;;7.04;100.00
19748;BME280;10032;51.386;12.516;2023-04-01T22:54:37;99373.25;;;7.04;100.00
19748;BME280;10032;51.386;12.516;2023-04-01T22:57:31;99382.63;;;7.02;100.00
19748;BME280;10032;51.386;12.516;2023-04-01T23:02:37;99384.84;;;6.88;100.00
19748;BME280;10032;51.386;12.516;2023-04-01T23:05:05;99392.28;;;6.81;100.00
19748;BME280;10032;51.386;12.516;2023-04-01T23:10:05;99401.72;;;6.67;100.00
19748;BME280;10032;51.386;12.516;2023-04-01T23:12:38;99405.47;;;6.66;100.00
19748;BME280;10032;51.386;12.516;2023-04-01T23:15:12;99398.59;;;6.59;100.00